sensor_id;sensor_type;location;lat;lon;timestamp;pressure;altitude;pressure_sealevel;temperature;humidity
47753;BME280;2038;51.728;6.674;2022-09-29T00:01:03;99331.81;;;9.63;100.00
47753;BME280;2038;51.728;6.674;2022-09-29T00:03:31;99334.47;;;9.66;100.00
47753;BME280;2038;51.728;6.674;2022-09-29T00:05:57;99335.28;;;9.65;100.00
47753;BME280;2038;51.728;6.674;2022-09-29T00:08:26;99332.72;;;9.65;100.00
47753;BME280;2038;51.728;6.674;2022-09-29T00:10:54;99335.59;;;9.53;100.00
47753;BME280;2038;51.728;6.674;2022-09-29T00:13:21;99336.47;;;9.54;100.00
47753;BME280;2038;51.728;6.674;2022-09-29T00:15:58;99340.75;;;9.55;100.00
47753;BME280;2038;51.728;6.674;2022-09-29T00:18:27;99335.16;;;9.44;100.00
47753;BME280;2038;51.728;6.674;2022-09-29T00:21:04;99337.31;;;9.36;100.00
47753;BME280;2038;51.728;6.674;2022-09-29T00:23:34;99338.63;;;9.28;100.00
47753;BME280;2038;51.728;6.674;2022-09-29T00:26:09;99330.78;;;9.24;100.00
47753;BME280;2038;51.728;6.674;2022-09-29T00:28:38;99331.88;;;9.29;100.00
47753;BME280;2038;51.728;6.674;2022-09-29T00:31:08;99329.78;;;9.20;100.00
47753;BME280;2038;51.728;6.674;2022-09-29T00:33:37;99336.91;;;9.10;100.00
47753;BME280;2038;51.728;6.674;2022-09-29T00:36:08;99335.06;;;9.07;100.00
47753;BME280;2038;51.728;6.674;2022-09-29T00:38:38;99338.91;;;8.99;100.00
47753;BME280;2038;51.728;6.674;2022-09-29T00:41:05;99330.34;;;8.97;100.00
47753;BME280;2038;51.728;6.674;2022-09-29T00:47:02;99333.25;;;9.05;100.00
47753;BME280;2038;51.728;6.674;2022-09-29T00:49:41;99334.88;;;9.03;100.00
47753;BME280;2038;51.728;6.674;2022-09-29T00:52:15;99341.81;;;9.07;100.00
47753;BME280;2038;51.728;6.674;2022-09-29T00:54:47;99342.63;;;9.06;100.00
47753;BME280;2038;51.728;6.674;2022-09-29T00:57:21;99340.88;;;9.05;100.00
47753;BME280;2038;51.728;6.674;2022-09-29T01:00:09;99338.19;;;9.02;100.00
47753;BME280;2038;51.728;6.674;2022-09-29T01:02:51;99338.06;;;8.99;100.00
47753;BME280;2038;51.728;6.674;2022-09-29T01:05:38;99343.97;;;8.99;100.00
47753;BME280;2038;51.728;6.674;2022-09-29T01:08:25;99340.50;;;8.97;100.00
47753;BME280;2038;51.728;6.674;2022-09-29T01:11:04;99339.50;;;8.93;100.00
47753;BME280;2038;51.728;6.674;2022-09-29T01:13:32;99331.66;;;8.89;100.00
47753;BME280;2038;51.728;6.674;2022-09-29T01:16:00;99332.75;;;8.94;100.00
47753;BME280;2038;51.728;6.674;2022-09-29T01:18:26;99338.75;;;8.96;100.00
47753;BME280;2038;51.728;6.674;2022-09-29T01:24:06;99333.03;;;9.00;100.00
47753;BME280;2038;51.728;6.674;2022-09-29T01:30:22;99339.69;;;8.80;100.00
47753;BME280;2038;51.728;6.674;2022-09-29T01:33:41;99334.38;;;8.76;100.00
47753;BME280;2038;51.728;6.674;2022-09-29T01:36:48;99332.41;;;8.70;100.00
47753;BME280;2038;51.728;6.674;2022-09-29T01:39:35;99335.75;;;8.69;100.00
47753;BME280;2038;51.728;6.674;2022-09-29T01:42:21;99337.56;;;8.72;100.00
47753;BME280;2038;51.728;6.674;2022-09-29T01:45:20;99337.56;;;8.72;100.00
47753;BME280;2038;51.728;6.674;2022-09-29T01:48:01;99336.53;;;8.68;100.00
47753;BME280;2038;51.728;6.674;2022-09-29T01:50:41;99332.34;;;8.69;100.00
47753;BME280;2038;51.728;6.674;2022-09-29T01:53:27;99338.06;;;8.65;100.00
47753;BME280;2038;51.728;6.674;2022-09-29T01:56:05;99337.66;;;8.57;100.00
47753;BME280;2038;51.728;6.674;2022-09-29T01:58:52;99336.00;;;8.58;100.00
47753;BME280;2038;51.728;6.674;2022-09-29T02:01:24;99340.22;;;8.57;100.00
47753;BME280;2038;51.728;6.674;2022-09-29T02:04:16;99335.38;;;8.62;100.00
47753;BME280;2038;51.728;6.674;2022-09-29T02:06:55;99340.59;;;8.65;100.00
47753;BME280;2038;51.728;6.674;2022-09-29T02:09:32;99341.31;;;8.62;100.00
47753;BME280;2038;51.728;6.674;2022-09-29T02:12:04;99341.97;;;8.58;100.00
47753;BME280;2038;51.728;6.674;2022-09-29T02:14:41;99341.97;;;8.58;100.00
47753;BME280;2038;51.728;6.674;2022-09-29T02:17:20;99338.78;;;8.62;100.00
47753;BME280;2038;51.728;6.674;2022-09-29T02:19:56;99337.03;;;8.61;100.00
47753;BME280;2038;51.728;6.674;2022-09-29T02:22:23;99340.22;;;8.57;100.00
47753;BME280;2038;51.728;6.674;2022-09-29T02:24:51;99341.88;;;8.57;100.00
47753;BME280;2038;51.728;6.674;2022-09-29T02:27:23;99343.78;;;8.61;100.00
47753;BME280;2038;51.728;6.674;2022-09-29T02:29:53;99345.91;;;8.69;100.00
47753;BME280;2038;51.728;6.674;2022-09-29T02:32:21;99339.63;;;8.63;100.00
47753;BME280;2038;51.728;6.674;2022-09-29T02:34:50;99344.56;;;8.60;100.00
47753;BME280;2038;51.728;6.674;2022-09-29T02:37:42;99340.25;;;8.59;100.00
47753;BME280;2038;51.728;6.674;2022-09-29T02:46:52;99350.53;;;8.44;100.00
47753;BME280;2038;51.728;6.674;2022-09-29T02:49:51;99347.69;;;8.38;100.00
47753;BME280;2038;51.728;6.674;2022-09-29T02:58:35;99343.94;;;8.48;100.00
47753;BME280;2038;51.728;6.674;2022-09-29T03:01:07;99352.28;;;8.45;100.00
47753;BME280;2038;51.728;6.674;2022-09-29T03:03:34;99351.41;;;8.44;100.00
47753;BME280;2038;51.728;6.674;2022-09-29T03:06:00;99345.31;;;8.41;100.00
47753;BME280;2038;51.728;6.674;2022-09-29T03:08:27;99348.78;;;8.43;100.00
47753;BME280;2038;51.728;6.674;2022-09-29T03:10:53;99343.50;;;8.38;100.00
47753;BME280;2038;51.728;6.674;2022-09-29T03:13:19;99338.41;;;8.38;100.00
47753;BME280;2038;51.728;6.674;2022-09-29T03:15:45;99339.69;;;8.30;100.00
47753;BME280;2038;51.728;6.674;2022-09-29T03:18:11;99348.16;;;8.31;100.00
47753;BME280;2038;51.728;6.674;2022-09-29T03:20:37;99340.34;;;8.28;100.00
47753;BME280;2038;51.728;6.674;2022-09-29T03:23:03;99347.03;;;8.26;100.00
47753;BME280;2038;51.728;6.674;2022-09-29T03:25:29;99345.81;;;8.19;100.00
47753;BME280;2038;51.728;6.674;2022-09-29T03:27:54;99343.38;;;8.21;100.00
47753;BME280;2038;51.728;6.674;2022-09-29T03:30:20;99339.03;;;8.18;100.00
47753;BME280;2038;51.728;6.674;2022-09-29T03:32:48;99340.75;;;8.19;100.00
47753;BME280;2038;51.728;6.674;2022-09-29T03:35:14;99338.94;;;8.17;100.00
47753;BME280;2038;51.728;6.674;2022-09-29T03:37:40;99345.53;;;8.13;100.00
47753;BME280;2038;51.728;6.674;2022-09-29T03:40:06;99349.81;;;8.14;100.00
47753;BME280;2038;51.728;6.674;2022-09-29T03:42:33;99345.19;;;8.07;100.00
47753;BME280;2038;51.728;6.674;2022-09-29T03:44:59;99347.91;;;8.10;100.00
47753;BME280;2038;51.728;6.674;2022-09-29T03:47:25;99346.00;;;8.06;100.00
47753;BME280;2038;51.728;6.674;2022-09-29T03:49:51;99353.03;;;8.12;100.00
47753;BME280;2038;51.728;6.674;2022-09-29T03:52:17;99352.00;;;8.08;100.00
47753;BME280;2038;51.728;6.674;2022-09-29T03:54:44;99345.28;;;8.09;100.00
47753;BME280;2038;51.728;6.674;2022-09-29T03:57:13;99348.44;;;8.05;100.00
47753;BME280;2038;51.728;6.674;2022-09-29T03:59:39;99344.09;;;8.02;100.00
47753;BME280;2038;51.728;6.674;2022-09-29T04:02:05;99348.28;;;8.02;100.00
47753;BME280;2038;51.728;6.674;2022-09-29T04:04:31;99351.47;;;7.97;100.00
47753;BME280;2038;51.728;6.674;2022-09-29T04:06:56;99354.16;;;8.00;100.00
47753;BME280;2038;51.728;6.674;2022-09-29T04:09:22;99354.78;;;7.96;100.00
47753;BME280;2038;51.728;6.674;2022-09-29T04:11:48;99362.53;;;7.99;100.00
47753;BME280;2038;51.728;6.674;2022-09-29T04:14:16;99359.84;;;7.96;100.00
47753;BME280;2038;51.728;6.674;2022-09-29T04:16:42;99357.47;;;7.99;100.00
47753;BME280;2038;51.728;6.674;2022-09-29T04:19:07;99358.19;;;7.97;100.00
47753;BME280;2038;51.728;6.674;2022-09-29T04:21:33;99361.34;;;7.93;100.00
47753;BME280;2038;51.728;6.674;2022-09-29T04:23:59;99363.94;;;7.94;100.00
47753;BME280;2038;51.728;6.674;2022-09-29T04:26:28;99369.03;;;7.94;100.00
47753;BME280;2038;51.728;6.674;2022-09-29T04:28:54;99366.34;;;7.91;100.00
47753;BME280;2038;51.728;6.674;2022-09-29T04:31:21;99371.66;;;7.96;100.00
47753;BME280;2038;51.728;6.674;2022-09-29T04:33:47;99372.63;;;7.98;100.00
47753;BME280;2038;51.728;6.674;2022-09-29T04:36:13;99369.53;;;8.04;100.00
47753;BME280;2038;51.728;6.674;2022-09-29T04:38:39;99377.06;;;8.02;100.00
47753;BME280;2038;51.728;6.674;2022-09-29T04:41:06;99382.06;;;8.00;100.00
47753;BME280;2038;51.728;6.674;2022-09-29T04:43:32;99387.28;;;8.04;100.00
47753;BME280;2038;51.728;6.674;2022-09-29T04:46:05;99382.59;;;7.95;100.00
47753;BME280;2038;51.728;6.674;2022-09-29T04:48:33;99390.28;;;7.96;100.00
47753;BME280;2038;51.728;6.674;2022-09-29T04:51:01;99390.19;;;7.95;100.00
47753;BME280;2038;51.728;6.674;2022-09-29T04:53:27;99388.28;;;7.91;100.00
47753;BME280;2038;51.728;6.674;2022-09-29T04:55:53;99390.03;;;7.92;100.00
47753;BME280;2038;51.728;6.674;2022-09-29T04:58:20;99395.84;;;7.89;100.00
47753;BME280;2038;51.728;6.674;2022-09-29T05:00:46;99399.16;;;7.88;100.00
47753;BME280;2038;51.728;6.674;2022-09-29T05:03:12;99398.91;;;7.84;100.00
47753;BME280;2038;51.728;6.674;2022-09-29T05:05:39;99402.63;;;7.74;100.00
47753;BME280;2038;51.728;6.674;2022-09-29T05:08:05;99404.34;;;7.75;100.00
47753;BME280;2038;51.728;6.674;2022-09-29T05:10:31;99406.00;;;7.75;100.00
47753;BME280;2038;51.728;6.674;2022-09-29T05:12:58;99409.34;;;7.74;100.00
47753;BME280;2038;51.728;6.674;2022-09-29T05:15:24;99406.00;;;7.75;100.00
47753;BME280;2038;51.728;6.674;2022-09-29T05:17:50;99416.97;;;7.74;100.00
47753;BME280;2038;51.728;6.674;2022-09-29T05:20:16;99410.38;;;7.77;100.00
47753;BME280;2038;51.728;6.674;2022-09-29T05:22:43;99415.47;;;7.77;100.00
47753;BME280;2038;51.728;6.674;2022-09-29T05:25:09;99420.44;;;7.76;100.00
47753;BME280;2038;51.728;6.674;2022-09-29T05:27:36;99422.91;;;7.74;100.00
47753;BME280;2038;51.728;6.674;2022-09-29T05:30:03;99425.59;;;7.77;100.00
47753;BME280;2038;51.728;6.674;2022-09-29T05:32:30;99426.28;;;7.75;100.00
47753;BME280;2038;51.728;6.674;2022-09-29T05:34:58;99426.47;;;7.78;100.00
47753;BME280;2038;51.728;6.674;2022-09-29T05:37:24;99435.59;;;7.74;100.00
47753;BME280;2038;51.728;6.674;2022-09-29T05:39:51;99440.66;;;7.74;100.00
47753;BME280;2038;51.728;6.674;2022-09-29T05:42:16;99440.47;;;7.71;100.00
47753;BME280;2038;51.728;6.674;2022-09-29T05:44:43;99440.88;;;7.79;100.00
47753;BME280;2038;51.728;6.674;2022-09-29T05:47:09;99441.50;;;7.75;100.00
47753;BME280;2038;51.728;6.674;2022-09-29T05:49:35;99445.53;;;7.71;100.00
47753;BME280;2038;51.728;6.674;2022-09-29T05:52:01;99444.34;;;7.65;100.00
47753;BME280;2038;51.728;6.674;2022-09-29T05:54:28;99445.81;;;7.61;100.00
47753;BME280;2038;51.728;6.674;2022-09-29T05:56:54;99441.63;;;7.62;100.00
47753;BME280;2038;51.728;6.674;2022-09-29T05:59:21;99448.53;;;7.64;100.00
47753;BME280;2038;51.728;6.674;2022-09-29T06:01:47;99436.22;;;7.70;100.00
47753;BME280;2038;51.728;6.674;2022-09-29T06:04:14;99444.03;;;7.75;100.00
47753;BME280;2038;51.728;6.674;2022-09-29T06:06:42;99445.28;;;7.81;100.00
47753;BME280;2038;51.728;6.674;2022-09-29T06:09:08;99443.50;;;7.80;100.00
47753;BME280;2038;51.728;6.674;2022-09-29T06:11:34;99445.78;;;7.76;100.00
47753;BME280;2038;51.728;6.674;2022-09-29T06:14:01;99446.81;;;7.79;100.00
47753;BME280;2038;51.728;6.674;2022-09-29T06:16:29;99452.16;;;7.84;100.00
47753;BME280;2038;51.728;6.674;2022-09-29T06:18:58;99442.59;;;7.94;100.00
47753;BME280;2038;51.728;6.674;2022-09-29T06:21:27;99453.19;;;8.02;100.00
47753;BME280;2038;51.728;6.674;2022-09-29T06:23:56;99444.22;;;8.09;100.00
47753;BME280;2038;51.728;6.674;2022-09-29T06:26:24;99449.88;;;8.19;100.00
47753;BME280;2038;51.728;6.674;2022-09-29T06:28:52;99456.78;;;8.22;100.00
47753;BME280;2038;51.728;6.674;2022-09-29T06:31:22;99457.22;;;8.29;100.00
47753;BME280;2038;51.728;6.674;2022-09-29T06:33:50;99462.56;;;8.34;100.00
47753;BME280;2038;51.728;6.674;2022-09-29T06:36:30;99460.06;;;8.35;100.00
47753;BME280;2038;51.728;6.674;2022-09-29T06:39:19;99461.19;;;8.40;100.00
47753;BME280;2038;51.728;6.674;2022-09-29T06:41:46;99461.94;;;8.54;100.00
47753;BME280;2038;51.728;6.674;2022-09-29T06:44:24;99464.78;;;8.60;100.00
47753;BME280;2038;51.728;6.674;2022-09-29T06:46:52;99465.56;;;8.59;100.00
47753;BME280;2038;51.728;6.674;2022-09-29T06:49:20;99464.28;;;8.67;100.00
47753;BME280;2038;51.728;6.674;2022-09-29T06:51:46;99475.47;;;8.71;100.00
47753;BME280;2038;51.728;6.674;2022-09-29T06:54:18;99469.63;;;8.72;100.00
47753;BME280;2038;51.728;6.674;2022-09-29T06:56:50;99478.66;;;8.83;100.00
47753;BME280;2038;51.728;6.674;2022-09-29T06:59:17;99478.19;;;8.90;100.00
47753;BME280;2038;51.728;6.674;2022-09-29T07:01:44;99482.78;;;8.97;100.00
47753;BME280;2038;51.728;6.674;2022-09-29T07:04:14;99483.66;;;8.98;100.00
47753;BME280;2038;51.728;6.674;2022-09-29T07:06:41;99491.81;;;9.08;100.00
47753;BME280;2038;51.728;6.674;2022-09-29T07:09:07;99489.44;;;9.11;100.00
47753;BME280;2038;51.728;6.674;2022-09-29T07:11:47;99489.44;;;9.11;100.00
47753;BME280;2038;51.728;6.674;2022-09-29T07:14:17;99492.06;;;9.13;100.00
47753;BME280;2038;51.728;6.674;2022-09-29T07:16:45;99495.72;;;9.18;100.00
47753;BME280;2038;51.728;6.674;2022-09-29T07:19:15;99494.25;;;9.23;100.00
47753;BME280;2038;51.728;6.674;2022-09-29T07:21:43;99491.22;;;9.46;100.00
47753;BME280;2038;51.728;6.674;2022-09-29T07:24:09;99503.09;;;9.47;100.00
47753;BME280;2038;51.728;6.674;2022-09-29T07:26:35;99496.94;;;9.42;100.00
47753;BME280;2038;51.728;6.674;2022-09-29T07:29:01;99499.91;;;9.51;100.00
47753;BME280;2038;51.728;6.674;2022-09-29T07:31:28;99505.41;;;9.59;100.00
47753;BME280;2038;51.728;6.674;2022-09-29T07:33:55;99506.25;;;9.59;100.00
47753;BME280;2038;51.728;6.674;2022-09-29T07:36:22;99506.75;;;9.52;100.00
47753;BME280;2038;51.728;6.674;2022-09-29T07:38:51;99506.06;;;9.55;100.00
47753;BME280;2038;51.728;6.674;2022-09-29T07:41:20;99505.56;;;9.62;100.00
47753;BME280;2038;51.728;6.674;2022-09-29T07:43:47;99512.91;;;9.73;100.00
47753;BME280;2038;51.728;6.674;2022-09-29T07:46:13;99507.22;;;9.79;100.00
47753;BME280;2038;51.728;6.674;2022-09-29T07:48:40;99510.06;;;9.85;100.00
47753;BME280;2038;51.728;6.674;2022-09-29T07:51:11;99517.94;;;9.90;100.00
47753;BME280;2038;51.728;6.674;2022-09-29T07:53:43;99520.91;;;9.99;100.00
47753;BME280;2038;51.728;6.674;2022-09-29T07:56:13;99524.63;;;10.05;100.00
47753;BME280;2038;51.728;6.674;2022-09-29T07:58:41;99524.91;;;10.11;100.00
47753;BME280;2038;51.728;6.674;2022-09-29T08:01:09;99535.50;;;10.19;100.00
47753;BME280;2038;51.728;6.674;2022-09-29T08:03:39;99530.69;;;10.25;100.00
47753;BME280;2038;51.728;6.674;2022-09-29T08:06:10;99537.28;;;10.39;100.00
47753;BME280;2038;51.728;6.674;2022-09-29T08:08:40;99537.22;;;10.38;100.00
47753;BME280;2038;51.728;6.674;2022-09-29T08:11:15;99541.91;;;10.48;100.00
47753;BME280;2038;51.728;6.674;2022-09-29T08:13:43;99537.91;;;10.53;100.00
47753;BME280;2038;51.728;6.674;2022-09-29T08:16:13;99545.13;;;10.61;100.00
47753;BME280;2038;51.728;6.674;2022-09-29T08:18:40;99546.59;;;10.75;100.00
47753;BME280;2038;51.728;6.674;2022-09-29T08:21:09;99548.44;;;10.78;100.00
47753;BME280;2038;51.728;6.674;2022-09-29T08:23:41;99548.03;;;10.88;100.00
47753;BME280;2038;51.728;6.674;2022-09-29T08:26:14;99550.09;;;10.97;100.00
47753;BME280;2038;51.728;6.674;2022-09-29T08:28:42;99548.03;;;11.07;100.00
47753;BME280;2038;51.728;6.674;2022-09-29T08:31:13;99552.72;;;11.17;100.00
47753;BME280;2038;51.728;6.674;2022-09-29T08:33:48;99559.78;;;11.23;100.00
47753;BME280;2038;51.728;6.674;2022-09-29T08:36:17;99555.50;;;11.22;100.00
47753;BME280;2038;51.728;6.674;2022-09-29T08:38:47;99553.34;;;11.31;100.00
47753;BME280;2038;51.728;6.674;2022-09-29T08:44:44;99563.53;;;11.50;100.00
47753;BME280;2038;51.728;6.674;2022-09-29T08:47:45;99568.94;;;11.58;100.00
47753;BME280;2038;51.728;6.674;2022-09-29T08:50:32;99569.84;;;11.60;100.00
47753;BME280;2038;51.728;6.674;2022-09-29T08:53:12;99572.28;;;11.57;100.00
47753;BME280;2038;51.728;6.674;2022-09-29T08:55:59;99567.06;;;11.73;100.00
47753;BME280;2038;51.728;6.674;2022-09-29T08:58:30;99570.59;;;11.77;100.00
47753;BME280;2038;51.728;6.674;2022-09-29T09:01:07;99569.88;;;11.79;100.00
47753;BME280;2038;51.728;6.674;2022-09-29T09:04:57;99569.25;;;11.85;100.00
47753;BME280;2038;51.728;6.674;2022-09-29T09:07:33;99567.56;;;11.85;100.00
47753;BME280;2038;51.728;6.674;2022-09-29T09:10:20;99573.97;;;11.96;100.00
47753;BME280;2038;51.728;6.674;2022-09-29T09:18:41;99577.78;;;12.06;100.00
47753;BME280;2038;51.728;6.674;2022-09-29T09:21:43;99583.19;;;12.13;100.00
47753;BME280;2038;51.728;6.674;2022-09-29T09:24:25;99586.84;;;12.20;100.00
47753;BME280;2038;51.728;6.674;2022-09-29T09:26:59;99578.94;;;12.35;100.00
47753;BME280;2038;51.728;6.674;2022-09-29T09:29:30;99594.38;;;12.38;100.00
47753;BME280;2038;51.728;6.674;2022-09-29T09:34:45;99586.16;;;12.45;100.00
47753;BME280;2038;51.728;6.674;2022-09-29T09:37:41;99583.25;;;12.58;100.00
47753;BME280;2038;51.728;6.674;2022-09-29T09:40:23;99581.88;;;12.66;100.00
47753;BME280;2038;51.728;6.674;2022-09-29T09:43:04;99585.22;;;12.65;100.00
47753;BME280;2038;51.728;6.674;2022-09-29T09:46:03;99590.91;;;12.80;100.00
47753;BME280;2038;51.728;6.674;2022-09-29T09:49:15;99591.09;;;12.85;100.00
47753;BME280;2038;51.728;6.674;2022-09-29T09:52:32;99589.75;;;12.94;100.00
47753;BME280;2038;51.728;6.674;2022-09-29T09:54:45;99587.41;;;13.00;100.00
47753;BME280;2038;51.728;6.674;2022-09-29T10:00:07;99591.13;;;13.08;100.00
47753;BME280;2038;51.728;6.674;2022-09-29T10:02:58;99586.84;;;13.07;100.00
47753;BME280;2038;51.728;6.674;2022-09-29T10:05:35;99587.03;;;13.12;100.00
47753;BME280;2038;51.728;6.674;2022-09-29T10:08:32;99596.09;;;13.26;100.00
47753;BME280;2038;51.728;6.674;2022-09-29T10:11:26;99595.38;;;13.30;100.00
47753;BME280;2038;51.728;6.674;2022-09-29T10:14:08;99594.03;;;13.40;100.00
47753;BME280;2038;51.728;6.674;2022-09-29T10:17:06;99598.28;;;13.39;100.00
47753;BME280;2038;51.728;6.674;2022-09-29T10:19:54;99599.25;;;13.43;100.00
47753;BME280;2038;51.728;6.674;2022-09-29T10:22:30;99600.13;;;13.43;100.00
47753;BME280;2038;51.728;6.674;2022-09-29T10:25:17;99605.81;;;13.60;100.00
47753;BME280;2038;51.728;6.674;2022-09-29T10:27:50;99605.06;;;13.63;100.00
47753;BME280;2038;51.728;6.674;2022-09-29T10:30:30;99605.31;;;13.70;100.00
47753;BME280;2038;51.728;6.674;2022-09-29T10:33:02;99603.25;;;13.84;100.00
47753;BME280;2038;51.728;6.674;2022-09-29T10:35:38;99605.22;;;13.92;100.00
47753;BME280;2038;51.728;6.674;2022-09-29T10:38:17;99616.41;;;13.94;100.00
47753;BME280;2038;51.728;6.674;2022-09-29T10:40:57;99620.59;;;13.92;100.00
47753;BME280;2038;51.728;6.674;2022-09-29T10:45:59;99613.78;;;13.93;100.00
47753;BME280;2038;51.728;6.674;2022-09-29T10:48:26;99616.34;;;13.93;100.00
47753;BME280;2038;51.728;6.674;2022-09-29T10:51:03;99618.25;;;13.98;100.00
47753;BME280;2038;51.728;6.674;2022-09-29T10:53:34;99623.53;;;14.03;100.00
47753;BME280;2038;51.728;6.674;2022-09-29T10:56:14;99619.63;;;14.14;100.00
47753;BME280;2038;51.728;6.674;2022-09-29T10:58:58;99613.34;;;14.31;100.00
47753;BME280;2038;51.728;6.674;2022-09-29T11:01:29;99619.16;;;14.51;100.00
47753;BME280;2038;51.728;6.674;2022-09-29T11:04:00;99615.28;;;14.64;100.00
47753;BME280;2038;51.728;6.674;2022-09-29T11:06:33;99619.72;;;14.69;100.00
47753;BME280;2038;51.728;6.674;2022-09-29T11:09:08;99624.22;;;14.76;100.00
47753;BME280;2038;51.728;6.674;2022-09-29T11:11:54;99622.13;;;14.93;100.00
47753;BME280;2038;51.728;6.674;2022-09-29T11:17:18;99629.56;;;15.12;98.17
47753;BME280;2038;51.728;6.674;2022-09-29T11:19:53;99628.47;;;15.34;99.73
47753;BME280;2038;51.728;6.674;2022-09-29T11:34:44;99633.78;;;15.70;95.41
47753;BME280;2038;51.728;6.674;2022-09-29T11:40:34;99637.75;;;15.59;93.16
47753;BME280;2038;51.728;6.674;2022-09-29T12:02:13;99647.56;;;15.73;88.58
47753;BME280;2038;51.728;6.674;2022-09-29T12:11:22;99638.75;;;15.95;90.60
47753;BME280;2038;51.728;6.674;2022-09-29T12:14:13;99648.41;;;16.05;91.35
47753;BME280;2038;51.728;6.674;2022-09-29T12:17:02;99645.16;;;16.11;92.59
47753;BME280;2038;51.728;6.674;2022-09-29T12:19:36;99644.78;;;16.30;92.21
47753;BME280;2038;51.728;6.674;2022-09-29T12:22:09;99648.53;;;16.43;90.74
47753;BME280;2038;51.728;6.674;2022-09-29T12:24:51;99647.69;;;16.44;90.41
47753;BME280;2038;51.728;6.674;2022-09-29T12:27:38;99642.72;;;16.51;93.09
47753;BME280;2038;51.728;6.674;2022-09-29T12:33:24;99642.25;;;16.31;89.93
47753;BME280;2038;51.728;6.674;2022-09-29T12:36:08;99648.47;;;16.41;92.44
47753;BME280;2038;51.728;6.674;2022-09-29T12:41:54;99639.88;;;16.39;91.81
47753;BME280;2038;51.728;6.674;2022-09-29T12:44:30;99644.06;;;16.35;90.89
47753;BME280;2038;51.728;6.674;2022-09-29T12:47:13;99641.44;;;16.34;91.52
47753;BME280;2038;51.728;6.674;2022-09-29T12:53:02;99640.94;;;16.14;88.97
47753;BME280;2038;51.728;6.674;2022-09-29T12:55:46;99638.94;;;16.03;91.09
47753;BME280;2038;51.728;6.674;2022-09-29T12:58:53;99640.19;;;15.85;91.05
47753;BME280;2038;51.728;6.674;2022-09-29T13:01:33;99637.19;;;15.69;90.73
47753;BME280;2038;51.728;6.674;2022-09-29T13:06:59;99645.97;;;15.47;89.12
47753;BME280;2038;51.728;6.674;2022-09-29T13:13:06;99644.97;;;15.42;89.54
47753;BME280;2038;51.728;6.674;2022-09-29T13:16:16;99644.47;;;15.54;89.96
47753;BME280;2038;51.728;6.674;2022-09-29T13:22:20;99649.28;;;15.73;90.05
47753;BME280;2038;51.728;6.674;2022-09-29T13:25:40;99649.31;;;15.74;90.40
47753;BME280;2038;51.728;6.674;2022-09-29T13:28:29;99648.66;;;15.81;91.22
47753;BME280;2038;51.728;6.674;2022-09-29T13:31:03;99652.69;;;15.72;89.73
47753;BME280;2038;51.728;6.674;2022-09-29T13:33:34;99656.75;;;15.64;90.76
47753;BME280;2038;51.728;6.674;2022-09-29T13:36:01;99649.88;;;15.63;91.47
47753;BME280;2038;51.728;6.674;2022-09-29T13:38:33;99655.88;;;15.63;91.45
47753;BME280;2038;51.728;6.674;2022-09-29T13:41:31;99660.56;;;15.78;89.61
47753;BME280;2038;51.728;6.674;2022-09-29T13:44:18;99657.53;;;15.93;89.06
47753;BME280;2038;51.728;6.674;2022-09-29T13:46:47;99665.44;;;16.00;88.75
47753;BME280;2038;51.728;6.674;2022-09-29T13:49:22;99663.69;;;15.99;86.57
47753;BME280;2038;51.728;6.674;2022-09-29T13:51:56;99662.91;;;16.02;87.02
47753;BME280;2038;51.728;6.674;2022-09-29T13:54:42;99663.50;;;15.91;87.91
47753;BME280;2038;51.728;6.674;2022-09-29T14:02:37;99671.31;;;15.65;88.58
47753;BME280;2038;51.728;6.674;2022-09-29T14:07:49;99670.34;;;15.60;89.94
47753;BME280;2038;51.728;6.674;2022-09-29T14:10:42;99665.06;;;15.55;88.59
47753;BME280;2038;51.728;6.674;2022-09-29T14:13:17;99668.44;;;15.53;88.11
47753;BME280;2038;51.728;6.674;2022-09-29T14:18:52;99677.59;;;15.44;90.46
47753;BME280;2038;51.728;6.674;2022-09-29T14:21:50;99670.19;;;15.55;90.11
47753;BME280;2038;51.728;6.674;2022-09-29T14:30:36;99677.09;;;15.87;87.95
47753;BME280;2038;51.728;6.674;2022-09-29T14:33:34;99686.97;;;16.05;85.34
47753;BME280;2038;51.728;6.674;2022-09-29T14:36:14;99686.28;;;16.11;87.17
47753;BME280;2038;51.728;6.674;2022-09-29T14:38:46;99696.13;;;16.27;87.38
47753;BME280;2038;51.728;6.674;2022-09-29T14:41:29;99705.03;;;16.39;84.69
47753;BME280;2038;51.728;6.674;2022-09-29T14:44:16;99701.22;;;16.57;84.76
47753;BME280;2038;51.728;6.674;2022-09-29T14:47:04;99706.75;;;16.73;83.06
47753;BME280;2038;51.728;6.674;2022-09-29T14:50:13;99709.41;;;16.76;81.93
47753;BME280;2038;51.728;6.674;2022-09-29T14:53:29;99706.09;;;16.82;83.09
47753;BME280;2038;51.728;6.674;2022-09-29T14:56:16;99712.09;;;16.81;82.69
47753;BME280;2038;51.728;6.674;2022-09-29T15:02:02;99714.72;;;16.84;80.26
47753;BME280;2038;51.728;6.674;2022-09-29T15:04:42;99717.31;;;16.84;80.33
47753;BME280;2038;51.728;6.674;2022-09-29T15:07:18;99714.09;;;16.93;80.50
47753;BME280;2038;51.728;6.674;2022-09-29T15:09:50;99720.94;;;16.92;81.05
47753;BME280;2038;51.728;6.674;2022-09-29T15:12:24;99718.41;;;16.95;80.99
47753;BME280;2038;51.728;6.674;2022-09-29T15:14:53;99716.72;;;16.97;81.29
47753;BME280;2038;51.728;6.674;2022-09-29T15:20:46;99718.47;;;16.97;81.97
47753;BME280;2038;51.728;6.674;2022-09-29T15:24:21;99727.00;;;16.96;80.92
47753;BME280;2038;51.728;6.674;2022-09-29T15:26:33;99731.25;;;16.94;82.37
47753;BME280;2038;51.728;6.674;2022-09-29T15:29:00;99726.97;;;16.93;80.88
47753;BME280;2038;51.728;6.674;2022-09-29T15:31:32;99725.09;;;16.87;81.12
47753;BME280;2038;51.728;6.674;2022-09-29T15:34:00;99719.81;;;16.81;81.76
47753;BME280;2038;51.728;6.674;2022-09-29T15:36:37;99728.28;;;16.77;81.09
47753;BME280;2038;51.728;6.674;2022-09-29T15:39:09;99738.44;;;16.71;82.28
47753;BME280;2038;51.728;6.674;2022-09-29T15:42:15;99728.00;;;16.65;81.62
47753;BME280;2038;51.728;6.674;2022-09-29T15:44:55;99736.38;;;16.58;82.38
47753;BME280;2038;51.728;6.674;2022-09-29T15:47:33;99736.50;;;16.62;84.42
47753;BME280;2038;51.728;6.674;2022-09-29T15:50:20;99740.00;;;16.66;84.00
47753;BME280;2038;51.728;6.674;2022-09-29T15:52:49;99731.22;;;16.58;83.68
47753;BME280;2038;51.728;6.674;2022-09-29T15:55:23;99739.72;;;16.55;83.33